sensor_id;sensor_type;location;lat;lon;timestamp;temperature;humidity
19256;DHT22;9762;52.490;13.410;2024-01-30T00:01:26;10.20;76.40
19256;DHT22;9762;52.490;13.410;2024-01-30T00:03:52;10.20;75.70
19256;DHT22;9762;52.490;13.410;2024-01-30T00:06:21;10.20;75.90
19256;DHT22;9762;52.490;13.410;2024-01-30T00:08:46;10.20;77.10
19256;DHT22;9762;52.490;13.410;2024-01-30T00:11:14;10.20;79.30
19256;DHT22;9762;52.490;13.410;2024-01-30T00:13:40;10.20;81.00
19256;DHT22;9762;52.490;13.410;2024-01-30T00:16:06;10.20;80.90
19256;DHT22;9762;52.490;13.410;2024-01-30T00:18:32;10.10;80.60
19256;DHT22;9762;52.490;13.410;2024-01-30T00:20:58;10.10;78.60
19256;DHT22;9762;52.490;13.410;2024-01-30T00:23:23;10.10;83.90
19256;DHT22;9762;52.490;13.410;2024-01-30T00:25:50;10.10;84.50
19256;DHT22;9762;52.490;13.410;2024-01-30T00:28:16;10.10;84.70
19256;DHT22;9762;52.490;13.410;2024-01-30T00:30:42;10.10;84.90
19256;DHT22;9762;52.490;13.410;2024-01-30T00:33:08;10.10;84.80
19256;DHT22;9762;52.490;13.410;2024-01-30T00:35:34;10.00;84.50
19256;DHT22;9762;52.490;13.410;2024-01-30T00:38:00;10.00;86.10
19256;DHT22;9762;52.490;13.410;2024-01-30T00:40:26;10.10;85.40
19256;DHT22;9762;52.490;13.410;2024-01-30T00:42:51;10.10;86.40
19256;DHT22;9762;52.490;13.410;2024-01-30T00:45:17;10.10;85.80
19256;DHT22;9762;52.490;13.410;2024-01-30T00:47:43;10.10;85.10
19256;DHT22;9762;52.490;13.410;2024-01-30T00:50:09;10.10;86.00
19256;DHT22;9762;52.490;13.410;2024-01-30T00:52:35;10.00;86.00
19256;DHT22;9762;52.490;13.410;2024-01-30T00:55:01;10.00;85.50
19256;DHT22;9762;52.490;13.410;2024-01-30T00:57:28;10.00;85.20
19256;DHT22;9762;52.490;13.410;2024-01-30T00:59:53;10.00;86.00
19256;DHT22;9762;52.490;13.410;2024-01-30T01:02:19;9.90;84.50
19256;DHT22;9762;52.490;13.410;2024-01-30T01:04:45;9.90;85.10
19256;DHT22;9762;52.490;13.410;2024-01-30T01:07:11;9.90;87.40
19256;DHT22;9762;52.490;13.410;2024-01-30T01:09:37;9.90;88.10
19256;DHT22;9762;52.490;13.410;2024-01-30T01:12:03;10.00;89.90
19256;DHT22;9762;52.490;13.410;2024-01-30T01:14:29;9.90;90.50
19256;DHT22;9762;52.490;13.410;2024-01-30T01:16:55;9.90;91.50
19256;DHT22;9762;52.490;13.410;2024-01-30T01:19:22;9.90;91.00
19256;DHT22;9762;52.490;13.410;2024-01-30T01:21:47;9.90;91.60
19256;DHT22;9762;52.490;13.410;2024-01-30T01:24:13;9.90;90.00
19256;DHT22;9762;52.490;13.410;2024-01-30T01:26:39;9.90;90.10
19256;DHT22;9762;52.490;13.410;2024-01-30T01:29:06;9.90;90.00
19256;DHT22;9762;52.490;13.410;2024-01-30T01:31:36;9.90;90.50
19256;DHT22;9762;52.490;13.410;2024-01-30T01:34:06;9.90;90.00
19256;DHT22;9762;52.490;13.410;2024-01-30T01:36:31;9.90;89.60
19256;DHT22;9762;52.490;13.410;2024-01-30T01:38:57;9.90;90.00
19256;DHT22;9762;52.490;13.410;2024-01-30T01:41:22;9.90;90.40
19256;DHT22;9762;52.490;13.410;2024-01-30T01:43:48;9.90;90.50
19256;DHT22;9762;52.490;13.410;2024-01-30T01:46:14;9.90;90.40
19256;DHT22;9762;52.490;13.410;2024-01-30T01:48:41;9.90;90.30
19256;DHT22;9762;52.490;13.410;2024-01-30T01:51:08;9.90;90.40
19256;DHT22;9762;52.490;13.410;2024-01-30T01:53:35;9.80;90.40
19256;DHT22;9762;52.490;13.410;2024-01-30T01:56:00;9.80;90.70
19256;DHT22;9762;52.490;13.410;2024-01-30T01:58:27;9.80;90.90
19256;DHT22;9762;52.490;13.410;2024-01-30T02:00:55;9.80;91.00
19256;DHT22;9762;52.490;13.410;2024-01-30T02:03:21;9.80;91.00
19256;DHT22;9762;52.490;13.410;2024-01-30T02:05:47;9.80;91.40
19256;DHT22;9762;52.490;13.410;2024-01-30T02:08:12;9.70;91.60
19256;DHT22;9762;52.490;13.410;2024-01-30T02:10:38;9.70;92.00
19256;DHT22;9762;52.490;13.410;2024-01-30T02:13:04;9.70;92.90
19256;DHT22;9762;52.490;13.410;2024-01-30T02:15:30;9.70;96.20
19256;DHT22;9762;52.490;13.410;2024-01-30T02:17:55;9.70;98.10
19256;DHT22;9762;52.490;13.410;2024-01-30T02:20:23;9.70;96.50
19256;DHT22;9762;52.490;13.410;2024-01-30T02:22:49;9.60;98.40
19256;DHT22;9762;52.490;13.410;2024-01-30T02:25:15;9.60;95.10
19256;DHT22;9762;52.490;13.410;2024-01-30T02:27:40;9.60;95.60
19256;DHT22;9762;52.490;13.410;2024-01-30T02:30:06;9.60;96.40
19256;DHT22;9762;52.490;13.410;2024-01-30T02:32:32;9.60;96.80
19256;DHT22;9762;52.490;13.410;2024-01-30T02:34:58;9.60;99.90
19256;DHT22;9762;52.490;13.410;2024-01-30T02:37:23;9.60;97.40
19256;DHT22;9762;52.490;13.410;2024-01-30T02:39:49;9.60;97.30
19256;DHT22;9762;52.490;13.410;2024-01-30T02:42:15;9.60;97.20
19256;DHT22;9762;52.490;13.410;2024-01-30T02:44:40;9.60;97.50
19256;DHT22;9762;52.490;13.410;2024-01-30T02:47:06;9.60;97.60
19256;DHT22;9762;52.490;13.410;2024-01-30T02:49:32;9.60;97.80
19256;DHT22;9762;52.490;13.410;2024-01-30T02:51:57;9.60;97.50
19256;DHT22;9762;52.490;13.410;2024-01-30T02:54:23;9.50;97.50
19256;DHT22;9762;52.490;13.410;2024-01-30T02:56:48;9.50;97.40
19256;DHT22;9762;52.490;13.410;2024-01-30T02:59:14;9.50;98.10
19256;DHT22;9762;52.490;13.410;2024-01-30T03:01:43;9.50;97.90
19256;DHT22;9762;52.490;13.410;2024-01-30T03:04:09;9.50;98.00
19256;DHT22;9762;52.490;13.410;2024-01-30T03:06:36;9.40;97.90
19256;DHT22;9762;52.490;13.410;2024-01-30T03:09:01;9.40;98.10
19256;DHT22;9762;52.490;13.410;2024-01-30T03:11:27;9.50;98.30
19256;DHT22;9762;52.490;13.410;2024-01-30T03:13:53;9.40;98.30
19256;DHT22;9762;52.490;13.410;2024-01-30T03:16:18;9.40;98.50
19256;DHT22;9762;52.490;13.410;2024-01-30T03:18:44;9.40;98.40
19256;DHT22;9762;52.490;13.410;2024-01-30T03:21:10;9.40;98.30
19256;DHT22;9762;52.490;13.410;2024-01-30T03:23:35;9.40;98.50
19256;DHT22;9762;52.490;13.410;2024-01-30T03:26:01;9.40;98.60
19256;DHT22;9762;52.490;13.410;2024-01-30T03:28:27;9.50;98.80
19256;DHT22;9762;52.490;13.410;2024-01-30T03:30:52;9.40;98.50
19256;DHT22;9762;52.490;13.410;2024-01-30T03:33:18;9.40;98.10
19256;DHT22;9762;52.490;13.410;2024-01-30T03:35:43;9.40;98.90
19256;DHT22;9762;52.490;13.410;2024-01-30T03:38:09;9.40;98.60
19256;DHT22;9762;52.490;13.410;2024-01-30T03:40:34;9.40;98.70
19256;DHT22;9762;52.490;13.410;2024-01-30T03:43:00;9.40;98.60
19256;DHT22;9762;52.490;13.410;2024-01-30T03:45:26;9.40;98.70
19256;DHT22;9762;52.490;13.410;2024-01-30T03:47:51;9.40;99.00
19256;DHT22;9762;52.490;13.410;2024-01-30T03:50:17;9.30;98.90
19256;DHT22;9762;52.490;13.410;2024-01-30T03:52:42;9.30;99.10
19256;DHT22;9762;52.490;13.410;2024-01-30T03:55:08;9.30;98.90
19256;DHT22;9762;52.490;13.410;2024-01-30T03:57:34;9.30;99.10
19256;DHT22;9762;52.490;13.410;2024-01-30T03:59:59;9.30;98.90
19256;DHT22;9762;52.490;13.410;2024-01-30T04:02:25;9.30;99.10
19256;DHT22;9762;52.490;13.410;2024-01-30T04:04:50;9.30;98.90
19256;DHT22;9762;52.490;13.410;2024-01-30T04:07:16;9.30;99.00
19256;DHT22;9762;52.490;13.410;2024-01-30T04:09:42;9.30;98.80
19256;DHT22;9762;52.490;13.410;2024-01-30T04:12:07;9.30;99.30
19256;DHT22;9762;52.490;13.410;2024-01-30T04:14:33;9.20;99.50
19256;DHT22;9762;52.490;13.410;2024-01-30T04:16:58;9.20;99.40
19256;DHT22;9762;52.490;13.410;2024-01-30T04:19:24;9.20;99.70
19256;DHT22;9762;52.490;13.410;2024-01-30T04:21:50;9.10;99.90
19256;DHT22;9762;52.490;13.410;2024-01-30T04:24:15;9.10;99.90
19256;DHT22;9762;52.490;13.410;2024-01-30T04:26:44;9.10;99.90
19256;DHT22;9762;52.490;13.410;2024-01-30T04:29:09;9.10;99.90
19256;DHT22;9762;52.490;13.410;2024-01-30T04:31:36;9.10;99.90
19256;DHT22;9762;52.490;13.410;2024-01-30T04:34:02;9.20;87.90
19256;DHT22;9762;52.490;13.410;2024-01-30T04:36:27;9.10;84.20
19256;DHT22;9762;52.490;13.410;2024-01-30T04:38:53;9.10;83.20
19256;DHT22;9762;52.490;13.410;2024-01-30T04:41:19;9.00;81.80
19256;DHT22;9762;52.490;13.410;2024-01-30T04:43:44;9.10;83.50
19256;DHT22;9762;52.490;13.410;2024-01-30T04:46:10;9.10;83.20
19256;DHT22;9762;52.490;13.410;2024-01-30T04:48:36;9.10;84.30
19256;DHT22;9762;52.490;13.410;2024-01-30T04:51:01;9.10;84.10
19256;DHT22;9762;52.490;13.410;2024-01-30T04:53:30;9.10;83.30
19256;DHT22;9762;52.490;13.410;2024-01-30T04:55:56;9.10;82.10
19256;DHT22;9762;52.490;13.410;2024-01-30T04:58:22;9.10;82.50
19256;DHT22;9762;52.490;13.410;2024-01-30T05:00:47;9.10;82.90
19256;DHT22;9762;52.490;13.410;2024-01-30T05:03:17;9.10;83.00
19256;DHT22;9762;52.490;13.410;2024-01-30T05:05:43;9.10;82.80
19256;DHT22;9762;52.490;13.410;2024-01-30T05:08:08;9.10;83.60
19256;DHT22;9762;52.490;13.410;2024-01-30T05:10:34;9.10;82.90
19256;DHT22;9762;52.490;13.410;2024-01-30T05:12:59;9.10;83.70
19256;DHT22;9762;52.490;13.410;2024-01-30T05:15:25;9.00;82.80
19256;DHT22;9762;52.490;13.410;2024-01-30T05:17:51;9.00;82.70
19256;DHT22;9762;52.490;13.410;2024-01-30T05:20:17;9.00;82.80
19256;DHT22;9762;52.490;13.410;2024-01-30T05:22:43;9.00;84.30
19256;DHT22;9762;52.490;13.410;2024-01-30T05:25:11;9.10;86.50
19256;DHT22;9762;52.490;13.410;2024-01-30T05:27:37;9.10;86.30
19256;DHT22;9762;52.490;13.410;2024-01-30T05:30:04;9.10;85.60
19256;DHT22;9762;52.490;13.410;2024-01-30T05:32:30;9.10;85.80
19256;DHT22;9762;52.490;13.410;2024-01-30T05:34:55;9.00;86.40
19256;DHT22;9762;52.490;13.410;2024-01-30T05:37:21;9.00;85.50
19256;DHT22;9762;52.490;13.410;2024-01-30T05:39:46;9.00;85.60
19256;DHT22;9762;52.490;13.410;2024-01-30T05:42:12;9.00;84.80
19256;DHT22;9762;52.490;13.410;2024-01-30T05:44:38;9.00;85.10
19256;DHT22;9762;52.490;13.410;2024-01-30T05:47:03;9.00;86.70
19256;DHT22;9762;52.490;13.410;2024-01-30T05:49:29;9.00;88.30
19256;DHT22;9762;52.490;13.410;2024-01-30T05:51:55;9.00;89.30
19256;DHT22;9762;52.490;13.410;2024-01-30T05:54:21;9.00;90.20
19256;DHT22;9762;52.490;13.410;2024-01-30T05:56:46;9.10;90.10
19256;DHT22;9762;52.490;13.410;2024-01-30T05:59:12;9.00;90.20
19256;DHT22;9762;52.490;13.410;2024-01-30T06:01:37;9.00;87.70
19256;DHT22;9762;52.490;13.410;2024-01-30T06:04:03;9.00;88.50
19256;DHT22;9762;52.490;13.410;2024-01-30T06:06:29;9.00;88.80
19256;DHT22;9762;52.490;13.410;2024-01-30T06:08:54;9.00;90.10
19256;DHT22;9762;52.490;13.410;2024-01-30T06:11:21;9.10;91.20
19256;DHT22;9762;52.490;13.410;2024-01-30T06:13:47;9.00;91.70
19256;DHT22;9762;52.490;13.410;2024-01-30T06:16:12;9.00;91.50
19256;DHT22;9762;52.490;13.410;2024-01-30T06:18:38;9.10;91.90
19256;DHT22;9762;52.490;13.410;2024-01-30T06:21:04;9.10;91.90
19256;DHT22;9762;52.490;13.410;2024-01-30T06:23:30;9.10;92.20
19256;DHT22;9762;52.490;13.410;2024-01-30T06:25:56;9.10;91.60
19256;DHT22;9762;52.490;13.410;2024-01-30T06:28:21;9.10;91.00
19256;DHT22;9762;52.490;13.410;2024-01-30T06:30:47;9.10;91.30
19256;DHT22;9762;52.490;13.410;2024-01-30T06:33:13;9.10;91.20
19256;DHT22;9762;52.490;13.410;2024-01-30T06:35:39;9.20;91.30
19256;DHT22;9762;52.490;13.410;2024-01-30T06:38:06;9.20;90.20
19256;DHT22;9762;52.490;13.410;2024-01-30T06:40:31;9.20;89.60
19256;DHT22;9762;52.490;13.410;2024-01-30T06:42:58;9.20;88.80
19256;DHT22;9762;52.490;13.410;2024-01-30T06:45:24;9.20;89.70
19256;DHT22;9762;52.490;13.410;2024-01-30T06:47:49;9.20;89.40
19256;DHT22;9762;52.490;13.410;2024-01-30T06:50:15;9.20;89.30
19256;DHT22;9762;52.490;13.410;2024-01-30T06:52:41;9.20;89.80
19256;DHT22;9762;52.490;13.410;2024-01-30T06:55:07;9.20;89.20
19256;DHT22;9762;52.490;13.410;2024-01-30T06:57:33;9.20;89.00
19256;DHT22;9762;52.490;13.410;2024-01-30T06:59:58;9.20;88.60
19256;DHT22;9762;52.490;13.410;2024-01-30T07:02:24;9.20;89.00
19256;DHT22;9762;52.490;13.410;2024-01-30T07:04:50;9.30;87.50
19256;DHT22;9762;52.490;13.410;2024-01-30T07:07:15;9.20;88.80
19256;DHT22;9762;52.490;13.410;2024-01-30T07:09:41;9.30;88.60
19256;DHT22;9762;52.490;13.410;2024-01-30T07:12:07;9.30;88.00
19256;DHT22;9762;52.490;13.410;2024-01-30T07:14:33;9.30;88.20
19256;DHT22;9762;52.490;13.410;2024-01-30T07:16:59;9.30;88.90
19256;DHT22;9762;52.490;13.410;2024-01-30T07:19:24;9.30;88.80
19256;DHT22;9762;52.490;13.410;2024-01-30T07:21:50;9.30;90.40
19256;DHT22;9762;52.490;13.410;2024-01-30T07:24:15;9.40;90.20
19256;DHT22;9762;52.490;13.410;2024-01-30T07:26:41;9.30;91.50
19256;DHT22;9762;52.490;13.410;2024-01-30T07:29:07;9.30;91.10
19256;DHT22;9762;52.490;13.410;2024-01-30T07:31:32;9.30;90.80
19256;DHT22;9762;52.490;13.410;2024-01-30T07:33:58;9.30;91.20
19256;DHT22;9762;52.490;13.410;2024-01-30T07:36:23;9.40;91.00
19256;DHT22;9762;52.490;13.410;2024-01-30T07:38:49;9.40;88.20
19256;DHT22;9762;52.490;13.410;2024-01-30T07:41:15;9.50;86.50
19256;DHT22;9762;52.490;13.410;2024-01-30T07:43:40;9.60;86.50
19256;DHT22;9762;52.490;13.410;2024-01-30T07:46:06;9.60;85.70
19256;DHT22;9762;52.490;13.410;2024-01-30T07:48:33;9.70;84.80
19256;DHT22;9762;52.490;13.410;2024-01-30T07:50:59;9.80;85.10
19256;DHT22;9762;52.490;13.410;2024-01-30T07:53:25;9.90;85.30
19256;DHT22;9762;52.490;13.410;2024-01-30T07:55:51;9.90;85.20
19256;DHT22;9762;52.490;13.410;2024-01-30T07:58:16;10.00;85.80
19256;DHT22;9762;52.490;13.410;2024-01-30T08:00:42;10.00;84.70
19256;DHT22;9762;52.490;13.410;2024-01-30T08:03:07;10.10;84.90
19256;DHT22;9762;52.490;13.410;2024-01-30T08:05:33;10.10;84.90
19256;DHT22;9762;52.490;13.410;2024-01-30T08:07:59;10.10;85.40
19256;DHT22;9762;52.490;13.410;2024-01-30T08:10:24;10.10;85.70
19256;DHT22;9762;52.490;13.410;2024-01-30T08:12:50;10.10;85.40
19256;DHT22;9762;52.490;13.410;2024-01-30T08:15:16;10.20;84.20
19256;DHT22;9762;52.490;13.410;2024-01-30T08:17:41;10.20;84.60
19256;DHT22;9762;52.490;13.410;2024-01-30T08:20:07;10.00;84.20
19256;DHT22;9762;52.490;13.410;2024-01-30T08:22:33;10.30;85.30
19256;DHT22;9762;52.490;13.410;2024-01-30T08:24:59;10.30;84.60
19256;DHT22;9762;52.490;13.410;2024-01-30T08:27:25;10.40;83.50
19256;DHT22;9762;52.490;13.410;2024-01-30T08:29:50;10.40;82.30
19256;DHT22;9762;52.490;13.410;2024-01-30T08:32:16;10.40;81.60
19256;DHT22;9762;52.490;13.410;2024-01-30T08:34:42;10.40;81.40
19256;DHT22;9762;52.490;13.410;2024-01-30T08:37:08;10.50;81.20
19256;DHT22;9762;52.490;13.410;2024-01-30T08:39:33;10.50;80.90
19256;DHT22;9762;52.490;13.410;2024-01-30T08:41:59;10.50;82.50
19256;DHT22;9762;52.490;13.410;2024-01-30T08:44:25;10.60;82.10
19256;DHT22;9762;52.490;13.410;2024-01-30T08:46:50;10.60;82.10
19256;DHT22;9762;52.490;13.410;2024-01-30T08:49:16;10.60;82.40
19256;DHT22;9762;52.490;13.410;2024-01-30T08:51:42;10.60;82.30
19256;DHT22;9762;52.490;13.410;2024-01-30T08:54:08;10.60;81.00
19256;DHT22;9762;52.490;13.410;2024-01-30T08:56:33;10.70;81.30
19256;DHT22;9762;52.490;13.410;2024-01-30T08:58:59;10.70;80.50
19256;DHT22;9762;52.490;13.410;2024-01-30T09:01:25;10.70;79.70
19256;DHT22;9762;52.490;13.410;2024-01-30T09:03:51;10.70;78.90
19256;DHT22;9762;52.490;13.410;2024-01-30T09:06:16;10.70;79.00
19256;DHT22;9762;52.490;13.410;2024-01-30T09:08:42;10.80;78.60
19256;DHT22;9762;52.490;13.410;2024-01-30T09:11:15;10.80;77.90
19256;DHT22;9762;52.490;13.410;2024-01-30T09:13:41;10.80;77.70
19256;DHT22;9762;52.490;13.410;2024-01-30T09:16:07;10.90;77.90
19256;DHT22;9762;52.490;13.410;2024-01-30T09:18:33;10.90;77.50
19256;DHT22;9762;52.490;13.410;2024-01-30T09:20:59;11.00;77.70
19256;DHT22;9762;52.490;13.410;2024-01-30T09:23:24;11.00;77.40
19256;DHT22;9762;52.490;13.410;2024-01-30T09:25:50;11.00;78.10
19256;DHT22;9762;52.490;13.410;2024-01-30T09:28:17;11.10;78.50
19256;DHT22;9762;52.490;13.410;2024-01-30T09:30:43;11.10;77.30
19256;DHT22;9762;52.490;13.410;2024-01-30T09:33:09;11.20;76.80
19256;DHT22;9762;52.490;13.410;2024-01-30T09:35:35;11.20;76.60
19256;DHT22;9762;52.490;13.410;2024-01-30T09:38:02;11.20;76.20
19256;DHT22;9762;52.490;13.410;2024-01-30T09:40:28;11.20;76.60
19256;DHT22;9762;52.490;13.410;2024-01-30T09:42:54;11.30;91.70
19256;DHT22;9762;52.490;13.410;2024-01-30T09:45:24;11.30;89.90
19256;DHT22;9762;52.490;13.410;2024-01-30T09:47:50;11.30;90.00
19256;DHT22;9762;52.490;13.410;2024-01-30T09:50:16;11.30;89.60
19256;DHT22;9762;52.490;13.410;2024-01-30T09:52:45;11.40;90.00
19256;DHT22;9762;52.490;13.410;2024-01-30T09:55:11;11.50;92.20
19256;DHT22;9762;52.490;13.410;2024-01-30T09:57:37;11.40;90.00
19256;DHT22;9762;52.490;13.410;2024-01-30T10:00:04;11.50;89.80
19256;DHT22;9762;52.490;13.410;2024-01-30T10:02:31;11.50;89.60
19256;DHT22;9762;52.490;13.410;2024-01-30T10:04:57;11.70;92.30
19256;DHT22;9762;52.490;13.410;2024-01-30T10:07:23;11.70;85.00
19256;DHT22;9762;52.490;13.410;2024-01-30T10:09:48;11.80;75.50
19256;DHT22;9762;52.490;13.410;2024-01-30T10:12:15;11.80;74.90
19256;DHT22;9762;52.490;13.410;2024-01-30T10:14:42;11.80;75.10
19256;DHT22;9762;52.490;13.410;2024-01-30T10:17:09;11.90;79.90
19256;DHT22;9762;52.490;13.410;2024-01-30T10:19:36;12.00;78.90
19256;DHT22;9762;52.490;13.410;2024-01-30T10:22:03;12.00;78.70
19256;DHT22;9762;52.490;13.410;2024-01-30T10:24:28;12.10;78.20
19256;DHT22;9762;52.490;13.410;2024-01-30T10:26:57;12.10;78.50
19256;DHT22;9762;52.490;13.410;2024-01-30T10:29:22;12.10;79.10
19256;DHT22;9762;52.490;13.410;2024-01-30T10:31:58;12.10;78.90
19256;DHT22;9762;52.490;13.410;2024-01-30T10:34:25;12.20;78.30
19256;DHT22;9762;52.490;13.410;2024-01-30T10:37:15;12.20;78.70
19256;DHT22;9762;52.490;13.410;2024-01-30T10:39:43;12.20;78.80
19256;DHT22;9762;52.490;13.410;2024-01-30T10:42:14;12.20;79.00
19256;DHT22;9762;52.490;13.410;2024-01-30T10:45:00;12.30;79.60
19256;DHT22;9762;52.490;13.410;2024-01-30T10:47:29;12.30;79.50
19256;DHT22;9762;52.490;13.410;2024-01-30T10:49:56;12.30;80.70
19256;DHT22;9762;52.490;13.410;2024-01-30T10:52:23;12.40;84.60
19256;DHT22;9762;52.490;13.410;2024-01-30T10:54:51;12.40;85.40
19256;DHT22;9762;52.490;13.410;2024-01-30T10:57:18;12.40;77.10
19256;DHT22;9762;52.490;13.410;2024-01-30T10:59:44;12.50;76.40
19256;DHT22;9762;52.490;13.410;2024-01-30T11:02:11;12.50;76.90
19256;DHT22;9762;52.490;13.410;2024-01-30T11:04:42;12.50;76.30
19256;DHT22;9762;52.490;13.410;2024-01-30T11:07:18;12.60;76.50
19256;DHT22;9762;52.490;13.410;2024-01-30T11:10:00;12.60;76.30
19256;DHT22;9762;52.490;13.410;2024-01-30T11:12:33;12.60;76.50
19256;DHT22;9762;52.490;13.410;2024-01-30T11:17:44;12.60;74.60
19256;DHT22;9762;52.490;13.410;2024-01-30T11:20:27;12.60;75.20
19256;DHT22;9762;52.490;13.410;2024-01-30T11:22:56;12.60;75.80
19256;DHT22;9762;52.490;13.410;2024-01-30T11:25:23;12.70;75.40
19256;DHT22;9762;52.490;13.410;2024-01-30T11:27:50;12.70;74.80
19256;DHT22;9762;52.490;13.410;2024-01-30T11:30:30;12.80;74.80
19256;DHT22;9762;52.490;13.410;2024-01-30T11:38:04;13.00;74.90
19256;DHT22;9762;52.490;13.410;2024-01-30T11:40:30;13.00;74.70
19256;DHT22;9762;52.490;13.410;2024-01-30T11:42:58;13.00;70.10
19256;DHT22;9762;52.490;13.410;2024-01-30T11:45:24;13.10;69.70
19256;DHT22;9762;52.490;13.410;2024-01-30T11:47:49;13.10;69.50
19256;DHT22;9762;52.490;13.410;2024-01-30T11:50:15;13.20;70.50
19256;DHT22;9762;52.490;13.410;2024-01-30T11:52:42;13.20;70.30
19256;DHT22;9762;52.490;13.410;2024-01-30T11:55:09;13.30;70.20
19256;DHT22;9762;52.490;13.410;2024-01-30T11:57:35;13.40;70.90
19256;DHT22;9762;52.490;13.410;2024-01-30T12:00:02;13.40;69.80
19256;DHT22;9762;52.490;13.410;2024-01-30T12:02:30;13.40;67.90
19256;DHT22;9762;52.490;13.410;2024-01-30T12:04:55;13.40;69.00
19256;DHT22;9762;52.490;13.410;2024-01-30T12:07:21;13.50;69.40
19256;DHT22;9762;52.490;13.410;2024-01-30T12:09:53;13.50;69.00
19256;DHT22;9762;52.490;13.410;2024-01-30T12:12:22;13.50;68.30
19256;DHT22;9762;52.490;13.410;2024-01-30T12:14:48;13.60;68.60
19256;DHT22;9762;52.490;13.410;2024-01-30T12:17:24;13.60;69.30
19256;DHT22;9762;52.490;13.410;2024-01-30T12:19:50;13.60;69.30
19256;DHT22;9762;52.490;13.410;2024-01-30T12:22:15;13.70;69.70
19256;DHT22;9762;52.490;13.410;2024-01-30T12:24:41;13.70;69.10
19256;DHT22;9762;52.490;13.410;2024-01-30T12:27:07;13.70;70.10
19256;DHT22;9762;52.490;13.410;2024-01-30T12:29:33;13.80;70.40
19256;DHT22;9762;52.490;13.410;2024-01-30T12:32:00;13.90;72.00
19256;DHT22;9762;52.490;13.410;2024-01-30T12:34:25;14.00;71.80
19256;DHT22;9762;52.490;13.410;2024-01-30T12:36:51;14.00;71.20
19256;DHT22;9762;52.490;13.410;2024-01-30T12:39:16;14.00;70.40
19256;DHT22;9762;52.490;13.410;2024-01-30T12:41:42;14.00;70.20
19256;DHT22;9762;52.490;13.410;2024-01-30T12:44:08;14.00;69.60
19256;DHT22;9762;52.490;13.410;2024-01-30T12:46:37;14.00;69.70
19256;DHT22;9762;52.490;13.410;2024-01-30T12:49:02;14.00;69.50
19256;DHT22;9762;52.490;13.410;2024-01-30T12:51:28;14.00;69.40
19256;DHT22;9762;52.490;13.410;2024-01-30T12:53:54;14.10;69.30
19256;DHT22;9762;52.490;13.410;2024-01-30T12:56:20;14.10;68.90
19256;DHT22;9762;52.490;13.410;2024-01-30T12:58:45;14.10;69.80
19256;DHT22;9762;52.490;13.410;2024-01-30T13:01:11;14.10;69.60
19256;DHT22;9762;52.490;13.410;2024-01-30T13:03:37;14.20;69.30
19256;DHT22;9762;52.490;13.410;2024-01-30T13:06:03;14.20;69.20
19256;DHT22;9762;52.490;13.410;2024-01-30T13:08:29;14.20;68.80
19256;DHT22;9762;52.490;13.410;2024-01-30T13:10:55;14.20;69.00
19256;DHT22;9762;52.490;13.410;2024-01-30T13:13:21;14.30;69.40
19256;DHT22;9762;52.490;13.410;2024-01-30T13:15:47;14.30;69.50
19256;DHT22;9762;52.490;13.410;2024-01-30T13:18:13;14.30;69.50
19256;DHT22;9762;52.490;13.410;2024-01-30T13:20:39;14.40;69.50
19256;DHT22;9762;52.490;13.410;2024-01-30T13:23:04;14.40;69.10
19256;DHT22;9762;52.490;13.410;2024-01-30T13:25:30;14.40;69.30
19256;DHT22;9762;52.490;13.410;2024-01-30T13:27:56;14.40;69.60
19256;DHT22;9762;52.490;13.410;2024-01-30T13:30:21;14.70;69.80
19256;DHT22;9762;52.490;13.410;2024-01-30T13:32:47;14.50;69.70
19256;DHT22;9762;52.490;13.410;2024-01-30T13:35:13;14.50;69.40
19256;DHT22;9762;52.490;13.410;2024-01-30T13:37:38;14.50;69.60
19256;DHT22;9762;52.490;13.410;2024-01-30T13:40:05;14.50;69.60
19256;DHT22;9762;52.490;13.410;2024-01-30T13:42:34;14.50;70.00
19256;DHT22;9762;52.490;13.410;2024-01-30T13:45:00;14.50;69.90
19256;DHT22;9762;52.490;13.410;2024-01-30T13:47:26;14.50;69.60
19256;DHT22;9762;52.490;13.410;2024-01-30T13:49:51;14.50;70.80
19256;DHT22;9762;52.490;13.410;2024-01-30T13:52:18;14.40;69.80
19256;DHT22;9762;52.490;13.410;2024-01-30T13:54:44;14.40;70.30
19256;DHT22;9762;52.490;13.410;2024-01-30T13:57:10;14.40;71.00
19256;DHT22;9762;52.490;13.410;2024-01-30T13:59:37;14.40;70.70
19256;DHT22;9762;52.490;13.410;2024-01-30T14:02:03;14.40;71.20
19256;DHT22;9762;52.490;13.410;2024-01-30T14:04:28;14.40;71.50
19256;DHT22;9762;52.490;13.410;2024-01-30T14:06:54;14.40;71.90
19256;DHT22;9762;52.490;13.410;2024-01-30T14:09:19;14.40;72.20
19256;DHT22;9762;52.490;13.410;2024-01-30T14:11:46;14.40;71.60
19256;DHT22;9762;52.490;13.410;2024-01-30T14:14:12;14.40;71.40
19256;DHT22;9762;52.490;13.410;2024-01-30T14:16:37;14.40;71.70
19256;DHT22;9762;52.490;13.410;2024-01-30T14:19:03;14.50;72.20
19256;DHT22;9762;52.490;13.410;2024-01-30T14:21:29;14.50;72.10
19256;DHT22;9762;52.490;13.410;2024-01-30T14:23:54;14.50;72.10
19256;DHT22;9762;52.490;13.410;2024-01-30T14:26:20;14.50;72.10
19256;DHT22;9762;52.490;13.410;2024-01-30T14:28:46;14.50;71.80
19256;DHT22;9762;52.490;13.410;2024-01-30T14:31:12;14.50;72.30
19256;DHT22;9762;52.490;13.410;2024-01-30T14:33:39;14.50;72.60
19256;DHT22;9762;52.490;13.410;2024-01-30T14:36:04;14.50;72.40
19256;DHT22;9762;52.490;13.410;2024-01-30T14:38:30;14.50;71.80
19256;DHT22;9762;52.490;13.410;2024-01-30T14:40:56;14.40;72.20
19256;DHT22;9762;52.490;13.410;2024-01-30T14:43:21;14.40;72.80
19256;DHT22;9762;52.490;13.410;2024-01-30T14:45:47;14.40;72.90
19256;DHT22;9762;52.490;13.410;2024-01-30T14:48:15;14.40;72.70
19256;DHT22;9762;52.490;13.410;2024-01-30T14:50:40;14.40;73.30
19256;DHT22;9762;52.490;13.410;2024-01-30T14:53:06;14.40;74.40
19256;DHT22;9762;52.490;13.410;2024-01-30T14:55:32;14.40;74.10
19256;DHT22;9762;52.490;13.410;2024-01-30T14:57:58;14.40;74.90
19256;DHT22;9762;52.490;13.410;2024-01-30T15:00:25;14.40;74.00
19256;DHT22;9762;52.490;13.410;2024-01-30T15:02:50;14.40;73.90
19256;DHT22;9762;52.490;13.410;2024-01-30T15:05:16;14.40;74.10
19256;DHT22;9762;52.490;13.410;2024-01-30T15:07:42;14.40;74.00
19256;DHT22;9762;52.490;13.410;2024-01-30T15:10:10;14.40;74.10
19256;DHT22;9762;52.490;13.410;2024-01-30T15:12:37;14.40;73.80
19256;DHT22;9762;52.490;13.410;2024-01-30T15:15:03;14.40;73.50
19256;DHT22;9762;52.490;13.410;2024-01-30T15:17:29;14.30;74.00
19256;DHT22;9762;52.490;13.410;2024-01-30T15:19:54;14.30;74.00
19256;DHT22;9762;52.490;13.410;2024-01-30T15:22:20;14.30;75.40
19256;DHT22;9762;52.490;13.410;2024-01-30T15:24:46;14.30;77.20
19256;DHT22;9762;52.490;13.410;2024-01-30T15:27:11;14.30;78.00
19256;DHT22;9762;52.490;13.410;2024-01-30T15:29:37;14.30;76.50
19256;DHT22;9762;52.490;13.410;2024-01-30T15:32:03;14.20;75.40
19256;DHT22;9762;52.490;13.410;2024-01-30T15:34:29;14.30;75.20
19256;DHT22;9762;52.490;13.410;2024-01-30T15:36:55;14.30;74.30
19256;DHT22;9762;52.490;13.410;2024-01-30T15:39:20;14.20;73.50